sensor_id;sensor_type;location;lat;lon;timestamp;P1;durP1;ratioP1;P2;durP2;ratioP2
25109;SDS011;13507;49.030;11.940;2023-02-16T00:02:16;3.50;;;3.20;;
25109;SDS011;13507;49.030;11.940;2023-02-16T00:03:37;4.30;;;3.90;;
25109;SDS011;13507;49.030;11.940;2023-02-16T00:04:58;3.97;;;3.67;;
25109;SDS011;13507;49.030;11.940;2023-02-16T00:07:40;4.00;;;3.70;;
25109;SDS011;13507;49.030;11.940;2023-02-16T00:09:02;4.05;;;3.65;;
25109;SDS011;13507;49.030;11.940;2023-02-16T00:10:24;3.60;;;3.30;;
25109;SDS011;13507;49.030;11.940;2023-02-16T00:11:52;4.15;;;3.75;;
25109;SDS011;13507;49.030;11.940;2023-02-16T00:13:14;3.97;;;3.72;;
25109;SDS011;13507;49.030;11.940;2023-02-16T00:14:43;4.10;;;3.72;;
25109;SDS011;13507;49.030;11.940;2023-02-16T00:16:07;5.13;;;4.07;;
25109;SDS011;13507;49.030;11.940;2023-02-16T00:17:38;4.13;;;3.60;;
25109;SDS011;13507;49.030;11.940;2023-02-16T00:18:59;4.32;;;4.03;;
25109;SDS011;13507;49.030;11.940;2023-02-16T00:20:20;3.75;;;3.45;;
25109;SDS011;13507;49.030;11.940;2023-02-16T00:21:42;3.67;;;3.45;;
25109;SDS011;13507;49.030;11.940;2023-02-16T00:23:03;3.60;;;3.30;;
25109;SDS011;13507;49.030;11.940;2023-02-16T00:24:28;4.53;;;4.15;;
25109;SDS011;13507;49.030;11.940;2023-02-16T00:25:50;4.18;;;3.80;;
25109;SDS011;13507;49.030;11.940;2023-02-16T00:27:14;4.30;;;4.00;;
25109;SDS011;13507;49.030;11.940;2023-02-16T00:28:36;3.83;;;3.50;;
25109;SDS011;13507;49.030;11.940;2023-02-16T00:29:59;4.18;;;3.85;;
25109;SDS011;13507;49.030;11.940;2023-02-16T00:31:22;4.13;;;3.72;;
25109;SDS011;13507;49.030;11.940;2023-02-16T00:32:47;4.40;;;4.00;;
25109;SDS011;13507;49.030;11.940;2023-02-16T00:34:17;4.10;;;3.70;;
25109;SDS011;13507;49.030;11.940;2023-02-16T00:35:47;4.38;;;4.03;;
25109;SDS011;13507;49.030;11.940;2023-02-16T00:38:32;4.65;;;4.25;;
25109;SDS011;13507;49.030;11.940;2023-02-16T00:41:15;4.25;;;3.92;;
25109;SDS011;13507;49.030;11.940;2023-02-16T00:42:37;4.20;;;3.90;;
25109;SDS011;13507;49.030;11.940;2023-02-16T00:44:01;3.90;;;3.60;;
25109;SDS011;13507;49.030;11.940;2023-02-16T00:45:22;4.90;;;4.00;;
25109;SDS011;13507;49.030;11.940;2023-02-16T00:46:45;3.83;;;3.53;;
25109;SDS011;13507;49.030;11.940;2023-02-16T00:48:10;4.15;;;3.75;;
25109;SDS011;13507;49.030;11.940;2023-02-16T00:49:33;3.83;;;3.53;;
25109;SDS011;13507;49.030;11.940;2023-02-16T00:50:57;3.90;;;3.60;;
25109;SDS011;13507;49.030;11.940;2023-02-16T00:52:30;4.18;;;3.88;;
25109;SDS011;13507;49.030;11.940;2023-02-16T00:53:55;4.32;;;4.03;;
25109;SDS011;13507;49.030;11.940;2023-02-16T00:55:18;4.22;;;3.83;;
25109;SDS011;13507;49.030;11.940;2023-02-16T00:56:40;4.57;;;4.18;;
25109;SDS011;13507;49.030;11.940;2023-02-16T00:58:04;4.63;;;4.30;;
25109;SDS011;13507;49.030;11.940;2023-02-16T00:59:30;4.43;;;4.13;;
25109;SDS011;13507;49.030;11.940;2023-02-16T01:00:52;3.60;;;3.30;;
25109;SDS011;13507;49.030;11.940;2023-02-16T01:02:15;3.63;;;3.33;;
25109;SDS011;13507;49.030;11.940;2023-02-16T01:05:03;3.92;;;3.63;;
25109;SDS011;13507;49.030;11.940;2023-02-16T01:06:28;3.80;;;3.50;;
25109;SDS011;13507;49.030;11.940;2023-02-16T01:09:11;4.07;;;3.78;;
25109;SDS011;13507;49.030;11.940;2023-02-16T01:10:33;4.18;;;3.88;;
25109;SDS011;13507;49.030;11.940;2023-02-16T01:11:57;3.70;;;3.40;;
25109;SDS011;13507;49.030;11.940;2023-02-16T01:13:22;3.65;;;3.35;;
25109;SDS011;13507;49.030;11.940;2023-02-16T01:14:44;4.03;;;3.72;;
25109;SDS011;13507;49.030;11.940;2023-02-16T01:16:10;4.53;;;3.90;;
25109;SDS011;13507;49.030;11.940;2023-02-16T01:17:34;4.22;;;3.85;;
25109;SDS011;13507;49.030;11.940;2023-02-16T01:20:22;4.20;;;3.90;;
25109;SDS011;13507;49.030;11.940;2023-02-16T01:21:45;4.35;;;3.95;;
25109;SDS011;13507;49.030;11.940;2023-02-16T01:24:27;3.88;;;3.58;;
25109;SDS011;13507;49.030;11.940;2023-02-16T01:25:48;3.83;;;3.53;;
25109;SDS011;13507;49.030;11.940;2023-02-16T01:27:10;4.72;;;4.32;;
25109;SDS011;13507;49.030;11.940;2023-02-16T01:28:33;3.67;;;3.38;;
25109;SDS011;13507;49.030;11.940;2023-02-16T01:29:57;4.10;;;3.80;;
25109;SDS011;13507;49.030;11.940;2023-02-16T01:31:18;3.92;;;3.63;;
25109;SDS011;13507;49.030;11.940;2023-02-16T01:32:40;3.75;;;3.45;;
25109;SDS011;13507;49.030;11.940;2023-02-16T01:34:07;3.70;;;3.40;;
25109;SDS011;13507;49.030;11.940;2023-02-16T01:35:29;4.50;;;4.10;;
25109;SDS011;13507;49.030;11.940;2023-02-16T01:36:55;3.95;;;3.65;;
25109;SDS011;13507;49.030;11.940;2023-02-16T01:38:17;4.28;;;3.80;;
25109;SDS011;13507;49.030;11.940;2023-02-16T01:39:42;4.20;;;3.83;;
25109;SDS011;13507;49.030;11.940;2023-02-16T01:41:05;4.05;;;3.75;;
25109;SDS011;13507;49.030;11.940;2023-02-16T01:42:33;3.83;;;3.50;;
25109;SDS011;13507;49.030;11.940;2023-02-16T01:43:57;3.67;;;3.38;;
25109;SDS011;13507;49.030;11.940;2023-02-16T01:45:23;3.72;;;3.42;;
25109;SDS011;13507;49.030;11.940;2023-02-16T01:46:54;3.97;;;3.67;;
25109;SDS011;13507;49.030;11.940;2023-02-16T01:48:21;4.30;;;4.00;;
25109;SDS011;13507;49.030;11.940;2023-02-16T01:49:49;3.85;;;3.53;;
25109;SDS011;13507;49.030;11.940;2023-02-16T01:51:11;3.58;;;3.28;;
25109;SDS011;13507;49.030;11.940;2023-02-16T01:52:42;4.10;;;3.70;;
25109;SDS011;13507;49.030;11.940;2023-02-16T01:54:09;3.55;;;3.35;;
25109;SDS011;13507;49.030;11.940;2023-02-16T01:55:37;3.65;;;3.45;;
25109;SDS011;13507;49.030;11.940;2023-02-16T01:57:04;3.95;;;3.65;;
25109;SDS011;13507;49.030;11.940;2023-02-16T01:58:34;3.55;;;3.35;;
25109;SDS011;13507;49.030;11.940;2023-02-16T02:00:12;4.35;;;4.05;;
25109;SDS011;13507;49.030;11.940;2023-02-16T02:01:43;3.70;;;3.40;;
25109;SDS011;13507;49.030;11.940;2023-02-16T02:03:14;3.65;;;3.45;;
25109;SDS011;13507;49.030;11.940;2023-02-16T02:04:38;4.40;;;4.05;;
25109;SDS011;13507;49.030;11.940;2023-02-16T02:06:07;3.80;;;3.50;;
25109;SDS011;13507;49.030;11.940;2023-02-16T02:07:35;3.90;;;3.60;;
25109;SDS011;13507;49.030;11.940;2023-02-16T02:09:06;3.92;;;3.63;;
25109;SDS011;13507;49.030;11.940;2023-02-16T02:10:33;3.90;;;3.60;;
25109;SDS011;13507;49.030;11.940;2023-02-16T02:12:02;3.90;;;3.60;;
25109;SDS011;13507;49.030;11.940;2023-02-16T02:13:30;4.05;;;3.75;;
25109;SDS011;13507;49.030;11.940;2023-02-16T02:14:55;4.18;;;3.88;;
25109;SDS011;13507;49.030;11.940;2023-02-16T02:17:41;4.15;;;3.78;;
25109;SDS011;13507;49.030;11.940;2023-02-16T02:19:02;4.03;;;3.63;;
25109;SDS011;13507;49.030;11.940;2023-02-16T02:20:29;3.80;;;3.50;;
25109;SDS011;13507;49.030;11.940;2023-02-16T02:22:12;3.88;;;3.58;;
25109;SDS011;13507;49.030;11.940;2023-02-16T02:27:28;4.38;;;4.00;;
25109;SDS011;13507;49.030;11.940;2023-02-16T02:28:55;3.92;;;3.63;;
25109;SDS011;13507;49.030;11.940;2023-02-16T02:30:31;4.43;;;4.03;;
25109;SDS011;13507;49.030;11.940;2023-02-16T02:32:06;4.68;;;4.28;;
25109;SDS011;13507;49.030;11.940;2023-02-16T02:33:41;3.80;;;3.50;;
25109;SDS011;13507;49.030;11.940;2023-02-16T02:35:16;4.53;;;4.13;;
25109;SDS011;13507;49.030;11.940;2023-02-16T02:36:47;4.32;;;4.03;;
25109;SDS011;13507;49.030;11.940;2023-02-16T02:38:14;3.65;;;3.40;;
25109;SDS011;13507;49.030;11.940;2023-02-16T02:39:44;3.53;;;3.30;;
25109;SDS011;13507;49.030;11.940;2023-02-16T02:41:14;3.93;;;3.50;;
25109;SDS011;13507;49.030;11.940;2023-02-16T02:42:47;4.18;;;3.88;;
25109;SDS011;13507;49.030;11.940;2023-02-16T02:44:17;4.22;;;3.88;;
25109;SDS011;13507;49.030;11.940;2023-02-16T02:45:43;3.80;;;3.50;;
25109;SDS011;13507;49.030;11.940;2023-02-16T02:47:07;3.70;;;3.50;;
25109;SDS011;13507;49.030;11.940;2023-02-16T02:49:50;3.90;;;3.60;;
25109;SDS011;13507;49.030;11.940;2023-02-16T02:51:16;4.07;;;3.78;;
25109;SDS011;13507;49.030;11.940;2023-02-16T02:52:38;4.22;;;3.92;;
25109;SDS011;13507;49.030;11.940;2023-02-16T02:54:01;3.53;;;3.20;;
25109;SDS011;13507;49.030;11.940;2023-02-16T02:55:25;3.65;;;3.35;;
25109;SDS011;13507;49.030;11.940;2023-02-16T02:56:49;3.95;;;3.65;;
25109;SDS011;13507;49.030;11.940;2023-02-16T02:58:21;3.75;;;3.45;;
25109;SDS011;13507;49.030;11.940;2023-02-16T02:59:49;4.10;;;3.80;;
25109;SDS011;13507;49.030;11.940;2023-02-16T03:01:16;3.58;;;3.28;;
25109;SDS011;13507;49.030;11.940;2023-02-16T03:02:38;4.00;;;3.70;;
25109;SDS011;13507;49.030;11.940;2023-02-16T03:04:03;4.55;;;4.15;;
25109;SDS011;13507;49.030;11.940;2023-02-16T03:05:28;4.57;;;4.18;;
25109;SDS011;13507;49.030;11.940;2023-02-16T03:06:56;4.20;;;3.90;;
25109;SDS011;13507;49.030;11.940;2023-02-16T03:08:20;4.38;;;4.07;;
25109;SDS011;13507;49.030;11.940;2023-02-16T03:09:43;3.60;;;3.30;;
25109;SDS011;13507;49.030;11.940;2023-02-16T03:11:08;3.67;;;3.47;;
25109;SDS011;13507;49.030;11.940;2023-02-16T03:12:32;4.95;;;3.92;;
25109;SDS011;13507;49.030;11.940;2023-02-16T03:13:59;4.00;;;3.70;;
25109;SDS011;13507;49.030;11.940;2023-02-16T03:15:28;3.92;;;3.63;;
25109;SDS011;13507;49.030;11.940;2023-02-16T03:16:53;4.20;;;3.90;;
25109;SDS011;13507;49.030;11.940;2023-02-16T03:18:17;4.53;;;4.13;;
25109;SDS011;13507;49.030;11.940;2023-02-16T03:21:01;3.90;;;3.60;;
25109;SDS011;13507;49.030;11.940;2023-02-16T03:22:23;3.90;;;3.60;;
25109;SDS011;13507;49.030;11.940;2023-02-16T03:23:47;3.67;;;3.38;;
25109;SDS011;13507;49.030;11.940;2023-02-16T03:25:10;3.88;;;3.58;;
25109;SDS011;13507;49.030;11.940;2023-02-16T03:27:53;3.95;;;3.65;;
25109;SDS011;13507;49.030;11.940;2023-02-16T03:29:19;4.50;;;4.10;;
25109;SDS011;13507;49.030;11.940;2023-02-16T03:30:45;3.78;;;3.47;;
25109;SDS011;13507;49.030;11.940;2023-02-16T03:32:11;3.47;;;3.28;;
25109;SDS011;13507;49.030;11.940;2023-02-16T03:33:34;3.92;;;3.65;;
25109;SDS011;13507;49.030;11.940;2023-02-16T03:34:56;3.60;;;3.40;;
25109;SDS011;13507;49.030;11.940;2023-02-16T03:37:39;3.78;;;3.47;;
25109;SDS011;13507;49.030;11.940;2023-02-16T03:39:01;3.90;;;3.60;;
25109;SDS011;13507;49.030;11.940;2023-02-16T03:40:25;3.65;;;3.45;;
25109;SDS011;13507;49.030;11.940;2023-02-16T03:41:53;4.25;;;3.95;;
25109;SDS011;13507;49.030;11.940;2023-02-16T03:43:15;4.28;;;3.97;;
25109;SDS011;13507;49.030;11.940;2023-02-16T03:44:39;4.00;;;3.67;;
25109;SDS011;13507;49.030;11.940;2023-02-16T03:46:02;3.80;;;3.50;;
25109;SDS011;13507;49.030;11.940;2023-02-16T03:47:26;3.53;;;3.22;;
25109;SDS011;13507;49.030;11.940;2023-02-16T03:50:10;3.83;;;3.63;;
25109;SDS011;13507;49.030;11.940;2023-02-16T03:51:34;4.28;;;3.88;;
25109;SDS011;13507;49.030;11.940;2023-02-16T03:52:56;3.60;;;3.30;;
25109;SDS011;13507;49.030;11.940;2023-02-16T03:54:17;3.70;;;3.42;;
25109;SDS011;13507;49.030;11.940;2023-02-16T03:55:39;3.92;;;3.63;;
25109;SDS011;13507;49.030;11.940;2023-02-16T03:57:04;4.13;;;3.83;;
25109;SDS011;13507;49.030;11.940;2023-02-16T03:58:26;3.97;;;3.67;;
25109;SDS011;13507;49.030;11.940;2023-02-16T03:59:52;4.03;;;3.72;;
25109;SDS011;13507;49.030;11.940;2023-02-16T04:01:16;4.18;;;3.88;;
25109;SDS011;13507;49.030;11.940;2023-02-16T04:02:40;3.92;;;3.63;;
25109;SDS011;13507;49.030;11.940;2023-02-16T04:05:22;3.92;;;3.63;;
25109;SDS011;13507;49.030;11.940;2023-02-16T04:08:04;4.22;;;3.88;;
25109;SDS011;13507;49.030;11.940;2023-02-16T04:09:26;4.32;;;4.03;;
25109;SDS011;13507;49.030;11.940;2023-02-16T04:10:49;3.50;;;3.30;;
25109;SDS011;13507;49.030;11.940;2023-02-16T04:12:11;4.22;;;3.92;;
25109;SDS011;13507;49.030;11.940;2023-02-16T04:13:32;4.53;;;4.13;;
25109;SDS011;13507;49.030;11.940;2023-02-16T04:14:56;4.03;;;3.72;;
25109;SDS011;13507;49.030;11.940;2023-02-16T04:16:18;4.28;;;3.97;;
25109;SDS011;13507;49.030;11.940;2023-02-16T04:17:42;4.15;;;3.85;;
25109;SDS011;13507;49.030;11.940;2023-02-16T04:19:04;3.95;;;3.65;;
25109;SDS011;13507;49.030;11.940;2023-02-16T04:20:29;3.85;;;3.55;;
25109;SDS011;13507;49.030;11.940;2023-02-16T04:21:51;3.88;;;3.58;;
25109;SDS011;13507;49.030;11.940;2023-02-16T04:23:13;3.53;;;3.33;;
25109;SDS011;13507;49.030;11.940;2023-02-16T04:24:34;3.85;;;3.55;;
25109;SDS011;13507;49.030;11.940;2023-02-16T04:25:55;3.83;;;3.53;;
25109;SDS011;13507;49.030;11.940;2023-02-16T04:27:17;3.63;;;3.33;;
25109;SDS011;13507;49.030;11.940;2023-02-16T04:28:40;3.78;;;3.50;;
25109;SDS011;13507;49.030;11.940;2023-02-16T04:30:05;3.67;;;3.47;;
25109;SDS011;13507;49.030;11.940;2023-02-16T04:31:30;3.63;;;3.35;;
25109;SDS011;13507;49.030;11.940;2023-02-16T04:32:51;3.15;;;2.95;;
25109;SDS011;13507;49.030;11.940;2023-02-16T04:34:15;3.80;;;3.55;;
25109;SDS011;13507;49.030;11.940;2023-02-16T04:35:40;3.90;;;3.60;;
25109;SDS011;13507;49.030;11.940;2023-02-16T04:38:21;3.80;;;3.50;;
25109;SDS011;13507;49.030;11.940;2023-02-16T04:41:06;3.75;;;3.45;;
25109;SDS011;13507;49.030;11.940;2023-02-16T04:42:26;4.07;;;3.78;;
25109;SDS011;13507;49.030;11.940;2023-02-16T04:43:51;3.60;;;3.30;;
25109;SDS011;13507;49.030;11.940;2023-02-16T04:45:18;3.80;;;3.50;;
25109;SDS011;13507;49.030;11.940;2023-02-16T04:46:39;3.97;;;3.67;;
25109;SDS011;13507;49.030;11.940;2023-02-16T04:48:00;3.92;;;3.63;;
25109;SDS011;13507;49.030;11.940;2023-02-16T04:49:21;3.78;;;3.55;;
25109;SDS011;13507;49.030;11.940;2023-02-16T04:52:06;3.70;;;3.47;;
25109;SDS011;13507;49.030;11.940;2023-02-16T04:53:28;4.10;;;3.80;;
25109;SDS011;13507;49.030;11.940;2023-02-16T04:54:49;4.18;;;3.88;;
25109;SDS011;13507;49.030;11.940;2023-02-16T04:56:10;3.60;;;3.40;;
25109;SDS011;13507;49.030;11.940;2023-02-16T04:57:34;3.83;;;3.53;;
25109;SDS011;13507;49.030;11.940;2023-02-16T04:58:55;4.30;;;4.00;;
25109;SDS011;13507;49.030;11.940;2023-02-16T05:00:22;3.90;;;3.60;;
25109;SDS011;13507;49.030;11.940;2023-02-16T05:01:45;3.95;;;3.65;;
25109;SDS011;13507;49.030;11.940;2023-02-16T05:03:07;3.90;;;3.60;;
25109;SDS011;13507;49.030;11.940;2023-02-16T05:04:28;4.25;;;3.95;;
25109;SDS011;13507;49.030;11.940;2023-02-16T05:05:52;3.83;;;3.42;;
25109;SDS011;13507;49.030;11.940;2023-02-16T05:07:16;3.70;;;3.50;;
25109;SDS011;13507;49.030;11.940;2023-02-16T05:08:39;3.70;;;3.40;;
25109;SDS011;13507;49.030;11.940;2023-02-16T05:10:00;3.97;;;3.67;;
25109;SDS011;13507;49.030;11.940;2023-02-16T05:11:21;3.53;;;3.25;;
25109;SDS011;13507;49.030;11.940;2023-02-16T05:12:43;4.00;;;3.70;;
25109;SDS011;13507;49.030;11.940;2023-02-16T05:15:27;4.20;;;3.90;;
25109;SDS011;13507;49.030;11.940;2023-02-16T05:16:49;4.07;;;3.78;;
25109;SDS011;13507;49.030;11.940;2023-02-16T05:18:10;4.30;;;4.00;;
25109;SDS011;13507;49.030;11.940;2023-02-16T05:19:31;3.60;;;3.30;;
25109;SDS011;13507;49.030;11.940;2023-02-16T05:20:52;3.67;;;3.38;;
25109;SDS011;13507;49.030;11.940;2023-02-16T05:23:35;3.95;;;3.65;;
25109;SDS011;13507;49.030;11.940;2023-02-16T05:24:56;4.03;;;3.63;;
25109;SDS011;13507;49.030;11.940;2023-02-16T05:26:17;3.55;;;3.35;;
25109;SDS011;13507;49.030;11.940;2023-02-16T05:27:41;3.40;;;3.10;;
25109;SDS011;13507;49.030;11.940;2023-02-16T05:29:06;4.10;;;3.80;;
25109;SDS011;13507;49.030;11.940;2023-02-16T05:30:30;4.32;;;4.03;;
25109;SDS011;13507;49.030;11.940;2023-02-16T05:31:53;3.70;;;3.40;;
25109;SDS011;13507;49.030;11.940;2023-02-16T05:33:18;3.60;;;3.40;;
25109;SDS011;13507;49.030;11.940;2023-02-16T05:34:39;3.60;;;3.30;;
25109;SDS011;13507;49.030;11.940;2023-02-16T05:36:00;3.97;;;3.67;;
25109;SDS011;13507;49.030;11.940;2023-02-16T05:38:44;3.58;;;3.25;;
25109;SDS011;13507;49.030;11.940;2023-02-16T05:40:07;3.70;;;3.40;;
25109;SDS011;13507;49.030;11.940;2023-02-16T05:41:32;3.40;;;3.20;;
25109;SDS011;13507;49.030;11.940;2023-02-16T05:42:55;3.22;;;3.03;;
25109;SDS011;13507;49.030;11.940;2023-02-16T05:44:18;3.20;;;3.00;;
25109;SDS011;13507;49.030;11.940;2023-02-16T05:47:02;3.47;;;3.25;;
25109;SDS011;13507;49.030;11.940;2023-02-16T05:48:24;3.72;;;3.45;;
25109;SDS011;13507;49.030;11.940;2023-02-16T05:49:45;3.75;;;3.50;;
25109;SDS011;13507;49.030;11.940;2023-02-16T05:52:27;3.92;;;3.60;;
25109;SDS011;13507;49.030;11.940;2023-02-16T05:53:51;3.85;;;3.55;;
25109;SDS011;13507;49.030;11.940;2023-02-16T05:55:12;3.55;;;3.35;;
25109;SDS011;13507;49.030;11.940;2023-02-16T05:56:35;3.50;;;3.30;;
25109;SDS011;13507;49.030;11.940;2023-02-16T05:57:59;4.13;;;3.83;;
25109;SDS011;13507;49.030;11.940;2023-02-16T05:59:21;3.47;;;3.20;;
25109;SDS011;13507;49.030;11.940;2023-02-16T06:00:45;3.95;;;3.65;;
25109;SDS011;13507;49.030;11.940;2023-02-16T06:02:06;3.90;;;3.60;;
25109;SDS011;13507;49.030;11.940;2023-02-16T06:03:29;3.80;;;3.50;;
25109;SDS011;13507;49.030;11.940;2023-02-16T06:04:53;4.00;;;3.70;;
25109;SDS011;13507;49.030;11.940;2023-02-16T06:06:14;3.30;;;3.10;;
25109;SDS011;13507;49.030;11.940;2023-02-16T06:07:38;4.35;;;3.95;;
25109;SDS011;13507;49.030;11.940;2023-02-16T06:10:22;3.85;;;3.55;;
25109;SDS011;13507;49.030;11.940;2023-02-16T06:11:44;3.75;;;3.45;;
25109;SDS011;13507;49.030;11.940;2023-02-16T06:13:05;3.70;;;3.40;;
25109;SDS011;13507;49.030;11.940;2023-02-16T06:14:29;3.80;;;3.50;;
25109;SDS011;13507;49.030;11.940;2023-02-16T06:17:14;4.03;;;3.67;;
25109;SDS011;13507;49.030;11.940;2023-02-16T06:18:38;4.15;;;3.85;;
25109;SDS011;13507;49.030;11.940;2023-02-16T06:19:59;3.92;;;3.63;;
25109;SDS011;13507;49.030;11.940;2023-02-16T06:21:24;4.25;;;3.92;;
25109;SDS011;13507;49.030;11.940;2023-02-16T06:22:48;3.38;;;3.17;;
25109;SDS011;13507;49.030;11.940;2023-02-16T06:24:09;4.43;;;4.05;;
25109;SDS011;13507;49.030;11.940;2023-02-16T06:25:34;4.03;;;3.72;;
25109;SDS011;13507;49.030;11.940;2023-02-16T06:26:58;3.97;;;3.67;;
25109;SDS011;13507;49.030;11.940;2023-02-16T06:29:40;3.85;;;3.55;;
25109;SDS011;13507;49.030;11.940;2023-02-16T06:32:28;4.28;;;3.97;;
25109;SDS011;13507;49.030;11.940;2023-02-16T06:33:50;3.90;;;3.60;;
25109;SDS011;13507;49.030;11.940;2023-02-16T06:35:11;4.00;;;3.65;;
25109;SDS011;13507;49.030;11.940;2023-02-16T06:36:35;4.03;;;3.72;;
25109;SDS011;13507;49.030;11.940;2023-02-16T06:37:59;4.18;;;3.88;;
25109;SDS011;13507;49.030;11.940;2023-02-16T06:39:23;3.75;;;3.38;;
25109;SDS011;13507;49.030;11.940;2023-02-16T06:40:46;3.10;;;2.90;;
25109;SDS011;13507;49.030;11.940;2023-02-16T06:42:10;3.78;;;3.58;;
25109;SDS011;13507;49.030;11.940;2023-02-16T06:44:52;3.47;;;3.28;;
25109;SDS011;13507;49.030;11.940;2023-02-16T06:47:37;3.70;;;3.40;;
25109;SDS011;13507;49.030;11.940;2023-02-16T06:48:59;3.80;;;3.50;;
25109;SDS011;13507;49.030;11.940;2023-02-16T06:50:20;3.55;;;3.30;;
25109;SDS011;13507;49.030;11.940;2023-02-16T06:53:02;4.00;;;3.70;;
25109;SDS011;13507;49.030;11.940;2023-02-16T06:55:45;3.65;;;3.35;;
25109;SDS011;13507;49.030;11.940;2023-02-16T06:57:06;3.85;;;3.55;;
25109;SDS011;13507;49.030;11.940;2023-02-16T06:58:27;3.80;;;3.50;;
25109;SDS011;13507;49.030;11.940;2023-02-16T06:59:52;3.55;;;3.35;;
25109;SDS011;13507;49.030;11.940;2023-02-16T07:01:18;4.25;;;3.85;;
25109;SDS011;13507;49.030;11.940;2023-02-16T07:02:39;3.88;;;3.58;;
25109;SDS011;13507;49.030;11.940;2023-02-16T07:04:01;3.50;;;3.20;;
25109;SDS011;13507;49.030;11.940;2023-02-16T07:05:22;3.67;;;3.38;;
25109;SDS011;13507;49.030;11.940;2023-02-16T07:06:44;4.07;;;3.72;;
25109;SDS011;13507;49.030;11.940;2023-02-16T07:09:26;4.32;;;4.00;;
25109;SDS011;13507;49.030;11.940;2023-02-16T07:10:49;4.80;;;4.40;;
25109;SDS011;13507;49.030;11.940;2023-02-16T07:12:12;4.82;;;4.43;;
25109;SDS011;13507;49.030;11.940;2023-02-16T07:14:57;4.70;;;3.90;;
25109;SDS011;13507;49.030;11.940;2023-02-16T07:17:41;3.95;;;3.60;;
25109;SDS011;13507;49.030;11.940;2023-02-16T07:19:02;4.18;;;3.88;;
25109;SDS011;13507;49.030;11.940;2023-02-16T07:21:44;4.18;;;3.78;;
25109;SDS011;13507;49.030;11.940;2023-02-16T07:23:05;3.42;;;3.15;;
25109;SDS011;13507;49.030;11.940;2023-02-16T07:25:47;4.72;;;3.28;;
25109;SDS011;13507;49.030;11.940;2023-02-16T07:27:12;4.07;;;3.38;;
25109;SDS011;13507;49.030;11.940;2023-02-16T07:28:36;5.25;;;3.63;;
25109;SDS011;13507;49.030;11.940;2023-02-16T07:29:57;3.92;;;3.58;;
25109;SDS011;13507;49.030;11.940;2023-02-16T07:32:42;7.43;;;3.90;;
25109;SDS011;13507;49.030;11.940;2023-02-16T07:34:04;6.20;;;4.15;;
25109;SDS011;13507;49.030;11.940;2023-02-16T07:35:28;7.45;;;4.15;;
25109;SDS011;13507;49.030;11.940;2023-02-16T07:36:49;8.80;;;4.13;;
25109;SDS011;13507;49.030;11.940;2023-02-16T07:38:13;5.65;;;3.65;;
25109;SDS011;13507;49.030;11.940;2023-02-16T07:39:34;7.85;;;3.88;;
25109;SDS011;13507;49.030;11.940;2023-02-16T07:40:55;4.50;;;3.70;;
25109;SDS011;13507;49.030;11.940;2023-02-16T07:42:19;6.85;;;4.03;;
25109;SDS011;13507;49.030;11.940;2023-02-16T07:43:40;6.53;;;4.15;;
25109;SDS011;13507;49.030;11.940;2023-02-16T07:46:25;6.03;;;3.97;;
25109;SDS011;13507;49.030;11.940;2023-02-16T07:47:47;4.40;;;3.47;;
25109;SDS011;13507;49.030;11.940;2023-02-16T07:49:08;5.05;;;4.00;;
25109;SDS011;13507;49.030;11.940;2023-02-16T07:51:50;6.72;;;4.00;;
25109;SDS011;13507;49.030;11.940;2023-02-16T07:53:14;4.57;;;3.95;;
25109;SDS011;13507;49.030;11.940;2023-02-16T07:55:56;8.68;;;4.13;;
25109;SDS011;13507;49.030;11.940;2023-02-16T07:57:20;4.38;;;3.45;;
25109;SDS011;13507;49.030;11.940;2023-02-16T07:58:41;6.78;;;3.92;;
25109;SDS011;13507;49.030;11.940;2023-02-16T08:00:03;5.03;;;4.30;;
25109;SDS011;13507;49.030;11.940;2023-02-16T08:01:33;5.35;;;3.92;;
25109;SDS011;13507;49.030;11.940;2023-02-16T08:02:57;6.22;;;3.85;;
25109;SDS011;13507;49.030;11.940;2023-02-16T08:04:19;5.28;;;3.70;;
25109;SDS011;13507;49.030;11.940;2023-02-16T08:05:40;4.68;;;3.40;;
25109;SDS011;13507;49.030;11.940;2023-02-16T08:07:04;6.43;;;4.13;;
25109;SDS011;13507;49.030;11.940;2023-02-16T08:09:48;4.38;;;3.67;;
25109;SDS011;13507;49.030;11.940;2023-02-16T08:11:10;6.75;;;3.83;;
25109;SDS011;13507;49.030;11.940;2023-02-16T08:12:33;8.52;;;3.85;;
25109;SDS011;13507;49.030;11.940;2023-02-16T08:13:57;6.65;;;4.03;;
25109;SDS011;13507;49.030;11.940;2023-02-16T08:15:19;6.57;;;4.15;;
25109;SDS011;13507;49.030;11.940;2023-02-16T08:16:45;4.53;;;3.95;;
25109;SDS011;13507;49.030;11.940;2023-02-16T08:18:12;5.25;;;4.75;;
25109;SDS011;13507;49.030;11.940;2023-02-16T08:20:54;10.82;;;4.38;;
25109;SDS011;13507;49.030;11.940;2023-02-16T08:22:24;5.40;;;3.60;;
25109;SDS011;13507;49.030;11.940;2023-02-16T08:23:46;7.75;;;4.00;;
25109;SDS011;13507;49.030;11.940;2023-02-16T08:25:12;11.02;;;7.25;;
25109;SDS011;13507;49.030;11.940;2023-02-16T08:26:34;18.42;;;14.32;;
25109;SDS011;13507;49.030;11.940;2023-02-16T08:27:59;25.60;;;19.88;;
25109;SDS011;13507;49.030;11.940;2023-02-16T08:29:24;24.05;;;20.77;;
25109;SDS011;13507;49.030;11.940;2023-02-16T08:30:49;28.10;;;22.52;;
25109;SDS011;13507;49.030;11.940;2023-02-16T08:32:12;26.77;;;21.75;;
25109;SDS011;13507;49.030;11.940;2023-02-16T08:33:34;25.00;;;20.60;;
25109;SDS011;13507;49.030;11.940;2023-02-16T08:34:55;24.83;;;20.55;;
25109;SDS011;13507;49.030;11.940;2023-02-16T08:36:17;25.65;;;19.75;;
25109;SDS011;13507;49.030;11.940;2023-02-16T08:37:39;23.33;;;19.23;;
25109;SDS011;13507;49.030;11.940;2023-02-16T08:39:04;23.05;;;18.52;;
25109;SDS011;13507;49.030;11.940;2023-02-16T08:40:29;25.60;;;19.20;;
25109;SDS011;13507;49.030;11.940;2023-02-16T08:41:55;21.48;;;17.83;;
25109;SDS011;13507;49.030;11.940;2023-02-16T08:43:17;20.52;;;16.92;;
25109;SDS011;13507;49.030;11.940;2023-02-16T08:44:41;18.45;;;16.17;;
25109;SDS011;13507;49.030;11.940;2023-02-16T08:46:04;21.35;;;17.83;;
25109;SDS011;13507;49.030;11.940;2023-02-16T08:47:29;20.02;;;16.63;;
25109;SDS011;13507;49.030;11.940;2023-02-16T08:48:53;18.08;;;15.48;;
25109;SDS011;13507;49.030;11.940;2023-02-16T08:50:15;18.33;;;15.52;;
25109;SDS011;13507;49.030;11.940;2023-02-16T08:51:42;19.10;;;15.35;;
25109;SDS011;13507;49.030;11.940;2023-02-16T08:53:04;17.67;;;15.55;;
25109;SDS011;13507;49.030;11.940;2023-02-16T08:55:52;17.92;;;14.68;;
25109;SDS011;13507;49.030;11.940;2023-02-16T08:57:16;17.60;;;14.65;;
25109;SDS011;13507;49.030;11.940;2023-02-16T08:58:40;17.75;;;14.40;;
25109;SDS011;13507;49.030;11.940;2023-02-16T09:00:05;15.00;;;13.38;;
25109;SDS011;13507;49.030;11.940;2023-02-16T09:01:27;16.35;;;14.55;;
25109;SDS011;13507;49.030;11.940;2023-02-16T09:02:51;16.30;;;13.82;;
25109;SDS011;13507;49.030;11.940;2023-02-16T09:04:13;15.00;;;13.00;;
25109;SDS011;13507;49.030;11.940;2023-02-16T09:05:35;16.92;;;13.43;;
25109;SDS011;13507;49.030;11.940;2023-02-16T09:06:58;14.27;;;12.57;;
25109;SDS011;13507;49.030;11.940;2023-02-16T09:08:20;15.05;;;13.43;;
25109;SDS011;13507;49.030;11.940;2023-02-16T09:09:41;17.23;;;13.65;;
25109;SDS011;13507;49.030;11.940;2023-02-16T09:11:03;16.70;;;12.70;;
25109;SDS011;13507;49.030;11.940;2023-02-16T09:12:27;16.05;;;12.70;;
25109;SDS011;13507;49.030;11.940;2023-02-16T09:13:51;17.92;;;12.55;;
25109;SDS011;13507;49.030;11.940;2023-02-16T09:15:12;13.32;;;11.93;;
25109;SDS011;13507;49.030;11.940;2023-02-16T09:16:34;14.18;;;12.18;;
25109;SDS011;13507;49.030;11.940;2023-02-16T09:17:57;13.85;;;11.38;;
25109;SDS011;13507;49.030;11.940;2023-02-16T09:19:19;13.25;;;11.88;;